Tropical Cyclones
[Index]
Main Index Home Page Stock Weather Photos Extreme Storms Discussion Storm News and Storm Chasing Reports Tropical Cyclones / Hurricanes / Typhoons Weather Data and Links Wild Fires / Bushfires Weather Observation Techniques Weather Picture Catalogue Tornado Pictures and Reports Stock Video Footage and DVDs for sale
Season 1964-1965 Tropical Cyclone FLORA Track Map
Season 1964-1965 Summaries: [BoM-AU] [JTWC-AU] [JTWC-SIO] [JTWC-SPAC] [JTWC-SH]
<<- Previous TC | BoM 1964-1965 Season | Next TC ->>

click for intensity scale information  Lat/long Grid: Show Hide

 Date Labels: Show Hide

Bureau of Meteorology Tropical Cyclone Data

Name: FLORA
Number: 391 / 196465_02

30 Nov 1964 23:00 UTC to 08 Dec 1964 23:00 UTC

    date/time    lat    long    hPa   cat  kts
1964-11-30 23   10.7   134.5   1002                     
1964-12-01 02   10.8   134.1   1002                     
1964-12-01 05   11.0   134.0   1002                     
1964-12-01 08   11.1   133.8   1002                     
1964-12-01 11   11.2   133.6   1001                     
1964-12-01 14   11.3   133.1   1000                     
1964-12-01 17   11.3   133.1   1000                     
1964-12-01 20   11.4   132.9   1000                     
1964-12-01 23   11.5   132.7   1000                     
1964-12-02 02   11.6   132.5   1000                     
1964-12-02 05   11.8   132.2    998                     
1964-12-02 08   12.0   132.1    997                     
1964-12-02 11   12.1   132.0    995    1                
1964-12-02 13   12.2   131.8    995    1                
1964-12-02 14   12.4   131.8    996                     
1964-12-02 17   12.5   131.6    997                     
1964-12-02 20   12.8   131.6    998                     
1964-12-02 23   13.1   131.6    998                     
1964-12-03 02   13.2   131.8    998                     
1964-12-03 05   13.5   132.3    998                     
1964-12-03 08   13.6   132.5    998                     
1964-12-03 11   13.7   132.7    998                     
1964-12-03 14   13.8   133.0    998                     
1964-12-03 17   13.8   133.2    998                     
1964-12-03 20   13.8   133.8    998                     
1964-12-03 23   13.8   134.3    998                     
1964-12-04 02   14.0   134.8    998                     
1964-12-04 05   14.3   135.0    998                     
1964-12-04 08   14.6   135.6    996                     
1964-12-04 14   15.2   136.7    994    1                
1964-12-04 23   15.9   138.6    993    1                
1964-12-05 10   16.5   141.2    992    1                
1964-12-05 11   16.5   141.4    992    1                
1964-12-05 14   16.7   141.8    994    1                
1964-12-05 16   17.0   141.9                            
1964-12-05 17   17.2   142.3    995    1                
1964-12-05 20   17.6   142.7    996                     
1964-12-05 23   17.7   143.5    996                     
1964-12-06 02   17.5   143.8    998                     
1964-12-06 08   17.5   145.0    996                     
1964-12-06 12   17.8   146.1    996                     
1964-12-06 23   18.5   147.9    996                     
1964-12-07 11   19.0   149.2    998                     
1964-12-07 23   19.2   150.1   1000                     
1964-12-08 11   19.7   151.6   1002                     
1964-12-08 23   20.0   152.8   1004                     
Winds are 10-min average.

Tropical cyclone tracks developed by Michael Bath using data from the Bureau of Meteorology and Google Maps.


[Australian Severe Weather index] [Copyright Notice] [Email Contacts] [Search This Site] [Privacy Policy]
Document: tropical_cyclone_flora.htm Updated: 30 May 2013